createdAt,value
2023-05-05T00:00:09.127Z,66.86
2023-05-05T00:05:32.519Z,66.72
2023-05-05T00:10:35.605Z,67.19
2023-05-05T00:15:38.838Z,67.56
2023-05-05T00:20:42.841Z,67.58
2023-05-05T00:25:45.981Z,67.39
2023-05-05T00:30:49.589Z,67.26
2023-05-05T00:35:52.787Z,67.60
2023-05-05T00:40:55.987Z,67.71
2023-05-05T00:46:11.174Z,67.42
2023-05-05T00:51:17.423Z,68.13
2023-05-05T00:56:22.408Z,68.93
2023-05-05T01:01:25.863Z,69.80
2023-05-05T01:07:13.576Z,70.73
2023-05-05T01:13:15.287Z,71.43
2023-05-05T01:19:10.896Z,71.15
2023-05-05T01:24:23.121Z,71.69
2023-05-05T01:30:04.117Z,71.88
2023-05-05T01:35:26.984Z,71.58
2023-05-05T01:40:39.173Z,71.72
2023-05-05T01:45:45.692Z,72.49
2023-05-05T01:50:52.435Z,72.60
2023-05-05T01:55:58.306Z,72.70
2023-05-05T02:01:02.809Z,72.84
2023-05-05T02:06:08.820Z,73.07
2023-05-05T02:11:14.115Z,73.21
2023-05-05T02:16:19.050Z,73.24
2023-05-05T02:21:23.191Z,73.90
2023-05-05T02:26:28.472Z,73.94
2023-05-05T02:31:45.762Z,74.28
2023-05-05T02:36:54.562Z,74.11
2023-05-05T02:42:03.132Z,73.48
2023-05-05T02:47:08.222Z,73.55
2023-05-05T02:52:11.527Z,73.68
2023-05-05T02:57:21.322Z,73.52
2023-05-05T03:02:47.007Z,73.10
2023-05-05T03:08:03.556Z,73.30
2023-05-05T03:13:11.615Z,73.38
2023-05-05T03:18:18.341Z,73.53
2023-05-05T03:23:23.067Z,73.64
2023-05-05T03:28:27.034Z,73.63
2023-05-05T03:33:30.159Z,74.14
2023-05-05T03:38:33.269Z,74.11
2023-05-05T03:43:36.866Z,74.01
2023-05-05T03:48:40.085Z,73.99
2023-05-05T03:53:43.279Z,73.68
2023-05-05T03:58:46.491Z,73.57
2023-05-05T04:03:49.731Z,73.65
2023-05-05T04:08:53.321Z,73.68
2023-05-05T04:13:56.749Z,73.76
2023-05-05T04:19:00.056Z,74.03
2023-05-05T04:24:03.685Z,73.86
2023-05-05T04:29:07.281Z,74.08
2023-05-05T04:34:11.308Z,74.79
2023-05-05T04:39:14.419Z,74.69
2023-05-05T04:44:17.619Z,74.69
2023-05-05T04:49:20.938Z,74.62
2023-05-05T04:54:24.254Z,74.31
2023-05-05T04:59:27.349Z,74.46
2023-05-05T05:04:30.669Z,74.06
2023-05-05T05:09:34.088Z,73.75
2023-05-05T05:14:39.104Z,73.57
2023-05-05T05:19:42.235Z,72.90
2023-05-05T05:24:45.470Z,72.63
2023-05-05T05:29:48.751Z,71.29
2023-05-05T05:34:51.874Z,70.75
2023-05-05T05:39:55.068Z,70.28
2023-05-05T05:45:01.617Z,69.75
2023-05-05T05:50:07.332Z,69.39
2023-05-05T05:55:10.668Z,68.83
2023-05-05T06:00:16.095Z,67.65
2023-05-05T06:05:19.203Z,66.81
2023-05-05T06:10:27.930Z,66.64
2023-05-05T06:15:31.758Z,66.28
2023-05-05T06:20:35.172Z,65.36
2023-05-05T06:25:39.490Z,64.40
2023-05-05T06:30:42.636Z,63.56
2023-05-05T06:35:46.027Z,62.31
2023-05-05T06:40:51.935Z,61.74
2023-05-05T06:45:55.211Z,61.24
2023-05-05T06:50:58.526Z,59.63
2023-05-05T06:56:01.736Z,59.63
2023-05-05T07:01:05.416Z,59.00
2023-05-05T07:06:08.566Z,58.67
2023-05-05T07:11:11.774Z,57.79
2023-05-05T07:16:15.301Z,57.42
2023-05-05T07:21:18.404Z,57.90
2023-05-05T07:26:21.707Z,57.74
2023-05-05T07:31:26.783Z,57.36
2023-05-05T07:36:30.585Z,57.51
2023-05-05T07:41:33.833Z,56.54
2023-05-05T07:46:37.470Z,56.41
2023-05-05T07:51:40.817Z,56.53
2023-05-05T07:56:44.337Z,55.62
2023-05-05T08:01:47.433Z,54.53
2023-05-05T08:06:50.772Z,54.69
2023-05-05T08:11:53.985Z,53.93
2023-05-05T08:16:57.729Z,53.16
2023-05-05T08:22:01.750Z,52.85
2023-05-05T08:27:04.944Z,52.49
2023-05-05T08:32:08.131Z,51.83
2023-05-05T08:37:11.647Z,51.56
2023-05-05T08:42:25.461Z,51.57
2023-05-05T08:47:38.193Z,51.04
2023-05-05T08:52:53.598Z,49.97
2023-05-05T08:57:58.483Z,48.63
2023-05-05T09:03:02.793Z,48.97
2023-05-05T09:08:10.214Z,48.13
2023-05-05T09:13:28.885Z,47.88
2023-05-05T09:18:31.989Z,47.16
2023-05-05T09:23:35.099Z,47.53
2023-05-05T09:28:38.828Z,46.90
2023-05-05T09:33:42.228Z,46.72
2023-05-05T09:39:06.358Z,46.94
2023-05-05T09:44:11.417Z,47.67
2023-05-05T09:49:18.236Z,46.30
2023-05-05T09:54:30.781Z,45.54
2023-05-05T09:59:34.327Z,45.98
2023-05-05T10:04:37.618Z,45.22
2023-05-05T10:09:41.042Z,45.38
2023-05-05T10:14:44.581Z,45.35
2023-05-05T10:19:50.235Z,45.72
2023-05-05T10:25:03.375Z,45.76
2023-05-05T10:30:10.527Z,44.22
2023-05-05T10:35:22.366Z,44.60
2023-05-05T10:40:26.213Z,44.85
2023-05-05T10:45:29.717Z,42.40
2023-05-05T10:51:06.738Z,43.99
2023-05-05T10:56:26.933Z,40.99
2023-05-05T11:01:36.565Z,40.06
2023-05-05T11:06:39.801Z,41.24
2023-05-05T11:12:04.830Z,41.87
2023-05-05T11:17:47.899Z,39.35
2023-05-05T11:23:03.361Z,41.52
2023-05-05T11:28:15.285Z,41.94
2023-05-05T11:33:36.190Z,40.94
2023-05-05T11:38:39.347Z,39.26
2023-05-05T11:43:43.026Z,40.43
2023-05-05T11:48:49.226Z,38.42
2023-05-05T11:53:53.033Z,37.79
2023-05-05T11:59:11.340Z,36.85
2023-05-05T12:04:16.272Z,38.11
2023-05-05T12:09:22.232Z,37.42
2023-05-05T12:14:26.232Z,37.21
2023-05-05T12:19:33.492Z,37.69
2023-05-05T12:24:36.861Z,37.74
2023-05-05T12:29:40.275Z,37.37
2023-05-05T12:34:44.087Z,35.94
2023-05-05T12:39:47.340Z,37.06
2023-05-05T12:44:50.940Z,35.53
2023-05-05T12:49:54.030Z,35.72
2023-05-05T12:54:59.835Z,34.84
2023-05-05T13:00:15.558Z,34.33
2023-05-05T13:05:33.318Z,35.29
2023-05-05T13:10:37.583Z,34.48
2023-05-05T13:15:41.378Z,34.39
2023-05-05T13:20:44.721Z,34.42
2023-05-05T13:25:48.031Z,34.74
2023-05-05T13:30:51.245Z,35.93
2023-05-05T13:35:54.572Z,35.69
2023-05-05T13:40:58.063Z,32.90
2023-05-05T13:46:16.143Z,32.80
2023-05-05T13:51:22.534Z,32.96
2023-05-05T13:56:27.964Z,32.83
2023-05-05T14:01:31.310Z,32.97
2023-05-05T14:06:35.923Z,32.17
2023-05-05T14:11:39.033Z,33.11
2023-05-05T14:16:42.404Z,32.63
2023-05-05T14:21:45.648Z,31.49
2023-05-05T14:26:49.469Z,30.75
2023-05-05T14:31:52.605Z,31.59
2023-05-05T14:36:56.100Z,32.38
2023-05-05T14:41:59.418Z,33.85
2023-05-05T14:47:02.821Z,34.09
2023-05-05T14:52:06.150Z,32.42
2023-05-05T14:57:09.754Z,32.71
2023-05-05T15:02:12.850Z,32.85
2023-05-05T15:07:16.103Z,33.39
2023-05-05T15:12:19.782Z,33.58
2023-05-05T15:17:23.143Z,33.58
2023-05-05T15:22:26.631Z,31.27
2023-05-05T15:27:30.943Z,32.44
2023-05-05T15:32:34.833Z,33.29
2023-05-05T15:37:38.149Z,30.75
2023-05-05T15:42:41.491Z,29.93
2023-05-05T15:47:44.974Z,30.50
2023-05-05T15:52:49.902Z,29.39
2023-05-05T15:57:54.597Z,30.24
2023-05-05T16:02:57.815Z,29.16
2023-05-05T16:08:01.120Z,30.31
2023-05-05T16:13:05.064Z,30.43
2023-05-05T16:18:08.364Z,30.55
2023-05-05T16:23:11.495Z,30.85
2023-05-05T16:28:14.671Z,30.75
2023-05-05T16:33:17.900Z,31.72
2023-05-05T16:38:21.079Z,31.83
2023-05-05T16:43:24.107Z,31.30
2023-05-05T16:48:27.302Z,31.09
2023-05-05T16:53:30.509Z,31.10
2023-05-05T16:58:33.820Z,31.24
2023-05-05T17:03:38.364Z,31.90
2023-05-05T17:08:41.678Z,32.60
2023-05-05T17:13:47.674Z,32.83
2023-05-05T17:18:51.508Z,33.74
2023-05-05T17:23:54.774Z,34.38
2023-05-05T17:28:58.087Z,35.03
2023-05-05T17:34:01.189Z,34.90
2023-05-05T17:39:06.104Z,35.45
2023-05-05T17:44:09.453Z,36.11
2023-05-05T17:49:12.874Z,36.47
2023-05-05T17:54:16.500Z,36.94
2023-05-05T17:59:19.736Z,36.60
2023-05-05T18:04:22.921Z,36.90
2023-05-05T18:09:27.050Z,37.35
2023-05-05T18:14:30.314Z,37.80
2023-05-05T18:19:33.556Z,38.12
2023-05-05T18:24:36.771Z,38.24
2023-05-05T18:29:39.975Z,38.33
2023-05-05T18:34:43.492Z,38.83
2023-05-05T18:39:46.662Z,38.92
2023-05-05T18:44:49.905Z,39.37
2023-05-05T18:49:53.214Z,40.17
2023-05-05T18:54:56.429Z,41.33
2023-05-05T19:00:00.766Z,42.36
2023-05-05T19:05:05.003Z,43.22
2023-05-05T19:10:09.631Z,43.82
2023-05-05T19:15:13.666Z,44.67
2023-05-05T19:20:17.190Z,45.41
2023-05-05T19:25:20.396Z,45.85
2023-05-05T19:30:23.910Z,46.56
2023-05-05T19:35:28.036Z,46.95
2023-05-05T19:40:31.346Z,47.56
2023-05-05T19:45:35.096Z,47.94
2023-05-05T19:50:38.659Z,48.55
2023-05-05T19:55:41.927Z,48.85
2023-05-05T20:00:45.308Z,49.08
2023-05-05T20:05:48.614Z,49.38
2023-05-05T20:10:51.932Z,49.42
2023-05-05T20:15:55.288Z,49.72
2023-05-05T20:21:01.625Z,50.04
2023-05-05T20:26:05.969Z,50.38
2023-05-05T20:31:10.639Z,50.76
2023-05-05T20:36:13.811Z,51.09
2023-05-05T20:41:16.928Z,51.37
2023-05-05T20:46:20.047Z,51.50
2023-05-05T20:51:23.361Z,52.03
2023-05-05T20:56:26.752Z,52.08
2023-05-05T21:01:30.175Z,52.40
2023-05-05T21:06:33.576Z,52.54
2023-05-05T21:11:37.292Z,53.01
2023-05-05T21:16:40.539Z,53.23
2023-05-05T21:21:44.544Z,53.83
2023-05-05T21:26:48.045Z,53.97
2023-05-05T21:31:51.384Z,54.40
2023-05-05T21:36:54.771Z,54.46
2023-05-05T21:41:59.214Z,54.69
2023-05-05T21:47:02.433Z,55.13
2023-05-05T21:52:05.850Z,55.22
2023-05-05T21:57:09.262Z,55.58
2023-05-05T22:02:12.964Z,55.98
2023-05-05T22:07:16.486Z,56.22
2023-05-05T22:12:19.697Z,56.55
2023-05-05T22:17:23.107Z,56.81
2023-05-05T22:22:26.422Z,56.83
2023-05-05T22:27:29.731Z,56.94
2023-05-05T22:32:33.098Z,57.29
2023-05-05T22:37:36.864Z,57.53
2023-05-05T22:42:40.189Z,57.97
2023-05-05T22:47:43.569Z,58.01
2023-05-05T22:52:47.218Z,58.51
2023-05-05T22:57:52.778Z,58.78
2023-05-05T23:02:56.124Z,58.97
2023-05-05T23:08:01.543Z,58.90
2023-05-05T23:13:04.979Z,58.95
2023-05-05T23:18:08.332Z,59.40
2023-05-05T23:23:11.785Z,59.60
2023-05-05T23:28:15.095Z,59.42
2023-05-05T23:33:18.309Z,59.60
2023-05-05T23:38:22.127Z,59.53
2023-05-05T23:43:25.440Z,59.24
2023-05-05T23:48:28.658Z,59.14
2023-05-05T23:53:31.953Z,58.94
2023-05-05T23:58:35.282Z,58.74
